sensor_id;sensor_type;location;lat;lon;timestamp;P1;durP1;ratioP1;P2;durP2;ratioP2
25649;SDS011;13505;45.196;5.696;2023-10-19T04:34:55;21.25;;;12.40;;
25649;SDS011;13505;45.196;5.696;2023-10-19T04:39:46;22.20;;;12.18;;
25649;SDS011;13505;45.196;5.696;2023-10-19T04:44:36;20.10;;;12.25;;
25649;SDS011;13505;45.196;5.696;2023-10-19T04:49:26;23.07;;;11.73;;
25649;SDS011;13505;45.196;5.696;2023-10-19T04:54:18;15.63;;;10.07;;
25649;SDS011;13505;45.196;5.696;2023-10-19T04:59:08;18.73;;;10.53;;
25649;SDS011;13505;45.196;5.696;2023-10-19T05:03:59;21.27;;;11.13;;
25649;SDS011;13505;45.196;5.696;2023-10-19T05:08:50;19.20;;;12.60;;
25649;SDS011;13505;45.196;5.696;2023-10-19T05:13:42;21.48;;;11.30;;
25649;SDS011;13505;45.196;5.696;2023-10-19T05:18:32;18.67;;;10.50;;
25649;SDS011;13505;45.196;5.696;2023-10-19T05:23:23;17.10;;;10.75;;
25649;SDS011;13505;45.196;5.696;2023-10-19T05:28:14;13.45;;;10.00;;
25649;SDS011;13505;45.196;5.696;2023-10-19T05:33:04;23.60;;;12.37;;
25649;SDS011;13505;45.196;5.696;2023-10-19T05:37:56;18.10;;;10.93;;
25649;SDS011;13505;45.196;5.696;2023-10-19T05:42:46;19.30;;;10.45;;
25649;SDS011;13505;45.196;5.696;2023-10-19T05:47:37;21.80;;;11.43;;
25649;SDS011;13505;45.196;5.696;2023-10-19T05:52:27;20.73;;;11.50;;
25649;SDS011;13505;45.196;5.696;2023-10-19T05:57:19;22.33;;;12.65;;
25649;SDS011;13505;45.196;5.696;2023-10-19T06:02:09;18.47;;;11.50;;
25649;SDS011;13505;45.196;5.696;2023-10-19T06:06:59;19.10;;;11.63;;
25649;SDS011;13505;45.196;5.696;2023-10-19T06:11:50;15.57;;;10.27;;
25649;SDS011;13505;45.196;5.696;2023-10-19T06:16:40;18.60;;;11.60;;
25649;SDS011;13505;45.196;5.696;2023-10-19T06:21:30;20.13;;;12.00;;
25649;SDS011;13505;45.196;5.696;2023-10-19T06:26:22;21.70;;;11.98;;
25649;SDS011;13505;45.196;5.696;2023-10-19T06:31:13;16.93;;;10.93;;
25649;SDS011;13505;45.196;5.696;2023-10-19T06:36:05;17.13;;;11.45;;
25649;SDS011;13505;45.196;5.696;2023-10-19T06:40:55;18.77;;;11.05;;
25649;SDS011;13505;45.196;5.696;2023-10-19T06:45:46;22.27;;;12.20;;
25649;SDS011;13505;45.196;5.696;2023-10-19T06:50:36;18.37;;;10.63;;
25649;SDS011;13505;45.196;5.696;2023-10-19T06:55:27;16.60;;;10.20;;
25649;SDS011;13505;45.196;5.696;2023-10-19T07:00:18;14.18;;;8.43;;
25649;SDS011;13505;45.196;5.696;2023-10-19T07:05:10;18.20;;;8.82;;
25649;SDS011;13505;45.196;5.696;2023-10-19T07:10:01;18.00;;;9.50;;
25649;SDS011;13505;45.196;5.696;2023-10-19T07:14:53;17.55;;;8.82;;
25649;SDS011;13505;45.196;5.696;2023-10-19T07:19:43;14.57;;;8.20;;
25649;SDS011;13505;45.196;5.696;2023-10-19T07:24:35;14.75;;;7.45;;
25649;SDS011;13505;45.196;5.696;2023-10-19T07:29:27;18.45;;;8.27;;
25649;SDS011;13505;45.196;5.696;2023-10-19T07:34:18;18.77;;;8.00;;
25649;SDS011;13505;45.196;5.696;2023-10-19T07:39:08;17.38;;;8.65;;
25649;SDS011;13505;45.196;5.696;2023-10-19T07:44:04;13.20;;;7.80;;
25649;SDS011;13505;45.196;5.696;2023-10-19T07:48:54;13.90;;;8.18;;
25649;SDS011;13505;45.196;5.696;2023-10-19T07:53:46;18.52;;;8.00;;
25649;SDS011;13505;45.196;5.696;2023-10-19T07:58:36;15.63;;;7.80;;
25649;SDS011;13505;45.196;5.696;2023-10-19T08:03:27;13.65;;;7.65;;
25649;SDS011;13505;45.196;5.696;2023-10-19T08:08:17;13.82;;;7.68;;
25649;SDS011;13505;45.196;5.696;2023-10-19T08:13:08;12.13;;;6.55;;
25649;SDS011;13505;45.196;5.696;2023-10-19T08:17:58;14.13;;;6.55;;
25649;SDS011;13505;45.196;5.696;2023-10-19T08:22:52;14.88;;;6.32;;
25649;SDS011;13505;45.196;5.696;2023-10-19T08:27:44;12.88;;;6.10;;
25649;SDS011;13505;45.196;5.696;2023-10-19T08:32:35;10.32;;;5.95;;
25649;SDS011;13505;45.196;5.696;2023-10-19T08:37:25;11.45;;;6.03;;
25649;SDS011;13505;45.196;5.696;2023-10-19T08:42:16;16.47;;;6.10;;
25649;SDS011;13505;45.196;5.696;2023-10-19T08:47:06;12.18;;;5.60;;
25649;SDS011;13505;45.196;5.696;2023-10-19T08:51:58;12.05;;;5.78;;
25649;SDS011;13505;45.196;5.696;2023-10-19T08:56:50;14.40;;;6.47;;
25649;SDS011;13505;45.196;5.696;2023-10-19T09:01:41;15.13;;;6.03;;
25649;SDS011;13505;45.196;5.696;2023-10-19T09:06:36;13.63;;;6.45;;
25649;SDS011;13505;45.196;5.696;2023-10-19T09:11:32;13.85;;;6.07;;
25649;SDS011;13505;45.196;5.696;2023-10-19T09:16:25;11.30;;;5.40;;
25649;SDS011;13505;45.196;5.696;2023-10-19T09:21:17;16.50;;;6.18;;
25649;SDS011;13505;45.196;5.696;2023-10-19T09:26:14;10.77;;;5.80;;
25649;SDS011;13505;45.196;5.696;2023-10-19T09:31:06;12.73;;;5.53;;
25649;SDS011;13505;45.196;5.696;2023-10-19T09:36:00;9.68;;;5.50;;
25649;SDS011;13505;45.196;5.696;2023-10-19T09:40:52;18.52;;;7.93;;
25649;SDS011;13505;45.196;5.696;2023-10-19T09:45:45;26.80;;;13.70;;
25649;SDS011;13505;45.196;5.696;2023-10-19T09:50:41;9.73;;;5.18;;
25649;SDS011;13505;45.196;5.696;2023-10-19T09:55:33;26.33;;;14.40;;
25649;SDS011;13505;45.196;5.696;2023-10-19T10:00:27;9.93;;;5.18;;
25649;SDS011;13505;45.196;5.696;2023-10-19T10:10:33;14.48;;;6.95;;
25649;SDS011;13505;45.196;5.696;2023-10-19T10:15:37;19.60;;;6.93;;
25649;SDS011;13505;45.196;5.696;2023-10-19T10:20:30;28.00;;;15.05;;
25649;SDS011;13505;45.196;5.696;2023-10-19T10:25:27;9.73;;;4.82;;
25649;SDS011;13505;45.196;5.696;2023-10-19T10:30:19;11.90;;;4.60;;
25649;SDS011;13505;45.196;5.696;2023-10-19T10:35:09;11.43;;;4.45;;
25649;SDS011;13505;45.196;5.696;2023-10-19T10:40:18;10.77;;;5.17;;
25649;SDS011;13505;45.196;5.696;2023-10-19T10:45:12;9.45;;;5.15;;
25649;SDS011;13505;45.196;5.696;2023-10-19T10:50:10;6.65;;;4.15;;
25649;SDS011;13505;45.196;5.696;2023-10-19T10:55:10;10.38;;;4.22;;
25649;SDS011;13505;45.196;5.696;2023-10-19T11:00:03;8.50;;;3.90;;
25649;SDS011;13505;45.196;5.696;2023-10-19T11:04:56;4.13;;;2.10;;
25649;SDS011;13505;45.196;5.696;2023-10-19T11:09:47;6.25;;;2.50;;
25649;SDS011;13505;45.196;5.696;2023-10-19T11:14:37;4.75;;;2.20;;
25649;SDS011;13505;45.196;5.696;2023-10-19T11:19:37;6.90;;;2.53;;
25649;SDS011;13505;45.196;5.696;2023-10-19T11:24:29;4.50;;;1.30;;
25649;SDS011;13505;45.196;5.696;2023-10-19T11:29:22;4.47;;;1.40;;
25649;SDS011;13505;45.196;5.696;2023-10-19T11:34:12;4.85;;;1.20;;
25649;SDS011;13505;45.196;5.696;2023-10-19T11:39:08;2.15;;;0.90;;
25649;SDS011;13505;45.196;5.696;2023-10-19T11:44:01;6.68;;;1.05;;
25649;SDS011;13505;45.196;5.696;2023-10-19T11:48:52;3.40;;;0.93;;
25649;SDS011;13505;45.196;5.696;2023-10-19T11:53:42;5.35;;;0.93;;
25649;SDS011;13505;45.196;5.696;2023-10-19T11:58:33;2.55;;;1.00;;
25649;SDS011;13505;45.196;5.696;2023-10-19T12:03:24;1.58;;;0.80;;
25649;SDS011;13505;45.196;5.696;2023-10-19T12:08:15;2.88;;;1.00;;
25649;SDS011;13505;45.196;5.696;2023-10-19T12:13:05;1.90;;;0.90;;
25649;SDS011;13505;45.196;5.696;2023-10-19T12:17:57;2.50;;;0.80;;
25649;SDS011;13505;45.196;5.696;2023-10-19T12:22:48;1.33;;;0.60;;
25649;SDS011;13505;45.196;5.696;2023-10-19T12:27:42;3.05;;;0.70;;
25649;SDS011;13505;45.196;5.696;2023-10-19T12:32:32;1.33;;;0.60;;
25649;SDS011;13505;45.196;5.696;2023-10-19T12:37:23;1.80;;;0.60;;
25649;SDS011;13505;45.196;5.696;2023-10-19T12:42:15;2.03;;;0.65;;
25649;SDS011;13505;45.196;5.696;2023-10-19T12:47:06;0.73;;;0.55;;
25649;SDS011;13505;45.196;5.696;2023-10-19T12:52:01;0.88;;;0.40;;
25649;SDS011;13505;45.196;5.696;2023-10-19T12:56:53;2.05;;;0.50;;
25649;SDS011;13505;45.196;5.696;2023-10-19T13:01:43;1.35;;;0.52;;
25649;SDS011;13505;45.196;5.696;2023-10-19T13:06:38;4.22;;;0.68;;
25649;SDS011;13505;45.196;5.696;2023-10-19T13:11:28;1.00;;;0.50;;
25649;SDS011;13505;45.196;5.696;2023-10-19T13:16:22;1.25;;;0.52;;
25649;SDS011;13505;45.196;5.696;2023-10-19T13:21:12;0.70;;;0.50;;
25649;SDS011;13505;45.196;5.696;2023-10-19T13:26:06;1.73;;;0.60;;
25649;SDS011;13505;45.196;5.696;2023-10-19T13:31:05;0.57;;;0.40;;
25649;SDS011;13505;45.196;5.696;2023-10-19T13:35:59;0.95;;;0.57;;
25649;SDS011;13505;45.196;5.696;2023-10-19T13:40:49;2.20;;;0.60;;
25649;SDS011;13505;45.196;5.696;2023-10-19T13:45:40;2.15;;;0.50;;
25649;SDS011;13505;45.196;5.696;2023-10-19T13:50:33;1.52;;;0.40;;
25649;SDS011;13505;45.196;5.696;2023-10-19T13:55:25;2.60;;;0.60;;
25649;SDS011;13505;45.196;5.696;2023-10-19T14:00:16;1.70;;;0.70;;
25649;SDS011;13505;45.196;5.696;2023-10-19T14:05:14;2.55;;;0.60;;
25649;SDS011;13505;45.196;5.696;2023-10-19T14:10:08;2.13;;;0.80;;
25649;SDS011;13505;45.196;5.696;2023-10-19T14:15:02;3.15;;;0.90;;
25649;SDS011;13505;45.196;5.696;2023-10-19T14:19:53;2.08;;;0.95;;
25649;SDS011;13505;45.196;5.696;2023-10-19T14:24:44;2.80;;;0.70;;
25649;SDS011;13505;45.196;5.696;2023-10-19T14:29:35;1.15;;;0.65;;
25649;SDS011;13505;45.196;5.696;2023-10-19T14:34:25;2.13;;;0.80;;
25649;SDS011;13505;45.196;5.696;2023-10-19T14:39:16;1.00;;;0.88;;
25649;SDS011;13505;45.196;5.696;2023-10-19T14:44:09;1.30;;;0.77;;
25649;SDS011;13505;45.196;5.696;2023-10-19T14:49:00;1.00;;;0.80;;
25649;SDS011;13505;45.196;5.696;2023-10-19T14:53:50;2.63;;;0.80;;
25649;SDS011;13505;45.196;5.696;2023-10-19T14:58:40;1.73;;;0.90;;
25649;SDS011;13505;45.196;5.696;2023-10-19T15:03:31;2.60;;;0.80;;
25649;SDS011;13505;45.196;5.696;2023-10-19T15:08:21;1.88;;;0.88;;
25649;SDS011;13505;45.196;5.696;2023-10-19T15:13:17;2.60;;;0.80;;
25649;SDS011;13505;45.196;5.696;2023-10-19T15:18:07;2.53;;;0.90;;
25649;SDS011;13505;45.196;5.696;2023-10-19T15:22:57;1.98;;;0.80;;
25649;SDS011;13505;45.196;5.696;2023-10-19T15:27:48;1.73;;;0.87;;
25649;SDS011;13505;45.196;5.696;2023-10-19T15:32:39;1.45;;;0.80;;
25649;SDS011;13505;45.196;5.696;2023-10-19T15:37:31;1.30;;;0.65;;
25649;SDS011;13505;45.196;5.696;2023-10-19T15:42:22;2.73;;;0.80;;
25649;SDS011;13505;45.196;5.696;2023-10-19T15:47:12;1.85;;;0.60;;
25649;SDS011;13505;45.196;5.696;2023-10-19T15:52:03;1.23;;;0.80;;
25649;SDS011;13505;45.196;5.696;2023-10-19T15:56:54;1.20;;;0.68;;
25649;SDS011;13505;45.196;5.696;2023-10-19T16:01:44;1.30;;;0.60;;
25649;SDS011;13505;45.196;5.696;2023-10-19T16:06:34;2.87;;;0.63;;
25649;SDS011;13505;45.196;5.696;2023-10-19T16:11:25;5.13;;;1.30;;
25649;SDS011;13505;45.196;5.696;2023-10-19T16:16:15;3.03;;;0.80;;
25649;SDS011;13505;45.196;5.696;2023-10-19T16:21:06;0.70;;;0.65;;
25649;SDS011;13505;45.196;5.696;2023-10-19T16:26:00;1.52;;;0.50;;
25649;SDS011;13505;45.196;5.696;2023-10-19T16:30:50;2.35;;;0.70;;
25649;SDS011;13505;45.196;5.696;2023-10-19T16:35:41;0.60;;;0.50;;
25649;SDS011;13505;45.196;5.696;2023-10-19T16:40:31;1.02;;;0.52;;
25649;SDS011;13505;45.196;5.696;2023-10-19T16:45:21;1.90;;;0.53;;
25649;SDS011;13505;45.196;5.696;2023-10-19T16:50:12;4.67;;;0.53;;
25649;SDS011;13505;45.196;5.696;2023-10-19T16:55:04;2.17;;;0.50;;
25649;SDS011;13505;45.196;5.696;2023-10-19T16:59:58;1.35;;;0.57;;
25649;SDS011;13505;45.196;5.696;2023-10-19T17:04:48;2.23;;;1.33;;
25649;SDS011;13505;45.196;5.696;2023-10-19T17:09:39;3.05;;;1.30;;
25649;SDS011;13505;45.196;5.696;2023-10-19T17:14:30;1.27;;;0.60;;
25649;SDS011;13505;45.196;5.696;2023-10-19T17:19:21;1.70;;;0.50;;
25649;SDS011;13505;45.196;5.696;2023-10-19T17:24:12;1.95;;;0.70;;
25649;SDS011;13505;45.196;5.696;2023-10-19T17:29:04;2.35;;;0.85;;
25649;SDS011;13505;45.196;5.696;2023-10-19T17:33:54;2.97;;;0.60;;
25649;SDS011;13505;45.196;5.696;2023-10-19T17:38:45;1.58;;;0.50;;
25649;SDS011;13505;45.196;5.696;2023-10-19T17:43:36;4.95;;;1.08;;
25649;SDS011;13505;45.196;5.696;2023-10-19T17:48:28;4.38;;;0.55;;
25649;SDS011;13505;45.196;5.696;2023-10-19T17:53:18;6.83;;;1.57;;
25649;SDS011;13505;45.196;5.696;2023-10-19T17:58:09;1.77;;;0.60;;
25649;SDS011;13505;45.196;5.696;2023-10-19T18:02:59;2.05;;;0.70;;
25649;SDS011;13505;45.196;5.696;2023-10-19T18:07:49;1.80;;;0.60;;
25649;SDS011;13505;45.196;5.696;2023-10-19T18:12:42;6.47;;;0.80;;
25649;SDS011;13505;45.196;5.696;2023-10-19T18:17:37;1.73;;;0.80;;
25649;SDS011;13505;45.196;5.696;2023-10-19T18:22:27;5.97;;;0.85;;
25649;SDS011;13505;45.196;5.696;2023-10-19T18:27:18;5.60;;;1.08;;
25649;SDS011;13505;45.196;5.696;2023-10-19T18:32:09;2.33;;;0.40;;
25649;SDS011;13505;45.196;5.696;2023-10-19T18:37:00;1.08;;;0.50;;
25649;SDS011;13505;45.196;5.696;2023-10-19T18:41:52;3.28;;;0.60;;
25649;SDS011;13505;45.196;5.696;2023-10-19T18:46:42;3.47;;;0.60;;
25649;SDS011;13505;45.196;5.696;2023-10-19T18:51:33;0.82;;;0.60;;
25649;SDS011;13505;45.196;5.696;2023-10-19T18:56:25;1.23;;;0.60;;
25649;SDS011;13505;45.196;5.696;2023-10-19T19:01:16;0.75;;;0.60;;
25649;SDS011;13505;45.196;5.696;2023-10-19T19:06:06;1.33;;;0.50;;
25649;SDS011;13505;45.196;5.696;2023-10-19T19:11:09;3.33;;;0.50;;
25649;SDS011;13505;45.196;5.696;2023-10-19T19:16:00;0.95;;;0.40;;
25649;SDS011;13505;45.196;5.696;2023-10-19T19:20:51;2.22;;;0.45;;
25649;SDS011;13505;45.196;5.696;2023-10-19T19:25:44;6.38;;;1.05;;
25649;SDS011;13505;45.196;5.696;2023-10-19T19:30:35;5.03;;;0.80;;
25649;SDS011;13505;45.196;5.696;2023-10-19T19:35:27;3.42;;;0.65;;
25649;SDS011;13505;45.196;5.696;2023-10-19T19:40:17;1.80;;;0.40;;
25649;SDS011;13505;45.196;5.696;2023-10-19T19:45:12;2.25;;;0.70;;
25649;SDS011;13505;45.196;5.696;2023-10-19T19:50:04;3.05;;;0.40;;
25649;SDS011;13505;45.196;5.696;2023-10-19T19:54:55;2.72;;;0.45;;
25649;SDS011;13505;45.196;5.696;2023-10-19T19:59:45;1.13;;;0.60;;
25649;SDS011;13505;45.196;5.696;2023-10-19T20:04:35;2.57;;;0.43;;
25649;SDS011;13505;45.196;5.696;2023-10-19T20:09:26;1.50;;;0.50;;
25649;SDS011;13505;45.196;5.696;2023-10-19T20:14:16;2.37;;;0.37;;
25649;SDS011;13505;45.196;5.696;2023-10-19T20:19:06;1.17;;;0.47;;
25649;SDS011;13505;45.196;5.696;2023-10-19T20:23:58;3.30;;;0.50;;
25649;SDS011;13505;45.196;5.696;2023-10-19T20:28:49;3.77;;;0.50;;
25649;SDS011;13505;45.196;5.696;2023-10-19T20:33:39;3.65;;;0.52;;
25649;SDS011;13505;45.196;5.696;2023-10-19T20:38:29;2.37;;;0.50;;
25649;SDS011;13505;45.196;5.696;2023-10-19T20:43:20;1.73;;;0.32;;
25649;SDS011;13505;45.196;5.696;2023-10-19T20:48:11;2.03;;;0.40;;
25649;SDS011;13505;45.196;5.696;2023-10-19T20:53:01;2.20;;;0.60;;
25649;SDS011;13505;45.196;5.696;2023-10-19T20:57:53;2.13;;;0.47;;
25649;SDS011;13505;45.196;5.696;2023-10-19T21:02:44;3.67;;;0.38;;
25649;SDS011;13505;45.196;5.696;2023-10-19T21:07:34;1.23;;;0.52;;
25649;SDS011;13505;45.196;5.696;2023-10-19T21:12:25;1.27;;;0.40;;
25649;SDS011;13505;45.196;5.696;2023-10-19T21:17:15;0.60;;;0.40;;
25649;SDS011;13505;45.196;5.696;2023-10-19T21:22:05;0.97;;;0.50;;
25649;SDS011;13505;45.196;5.696;2023-10-19T21:26:57;0.43;;;0.20;;
25649;SDS011;13505;45.196;5.696;2023-10-19T21:31:47;3.92;;;0.45;;
25649;SDS011;13505;45.196;5.696;2023-10-19T21:36:38;1.23;;;0.45;;
25649;SDS011;13505;45.196;5.696;2023-10-19T21:41:30;1.25;;;0.43;;
25649;SDS011;13505;45.196;5.696;2023-10-19T21:46:20;2.30;;;0.30;;
25649;SDS011;13505;45.196;5.696;2023-10-19T21:51:10;2.63;;;0.20;;
25649;SDS011;13505;45.196;5.696;2023-10-19T21:56:01;1.20;;;0.22;;
